Time;durP1;ratioP1;P1;durP2;ratioP2;P2;SDS_P1;SDS_P2;PMS_P1;PMS_P2;Temp;Humidity;BMP_temperature;BMP_pressure;BME280_temperature;BME280_humidity;BME280_pressure;Samples;Min_cycle;Max_cycle;Signal;HPM_P1;HPM_P2
2022/05/24 00:02:13;;;;;;;;;;;15.50;99.90;;;;;;2621406;46;19935;31
2022/05/24 00:04:48;;;;;;;;;;;15.50;99.90;;;;;;2603049;54;20747;31
2022/05/24 00:07:23;;;;;;;;;;;15.50;99.90;;;;;;2602835;54;20797;31
2022/05/24 00:09:56;;;;;;;;;;;15.50;99.90;;;;;;2602819;54;20732;31
2022/05/24 00:12:34;;;;;;;;;;;15.40;99.90;;;;;;2602919;54;19942;31
2022/05/24 00:15:27;;;;;;;;;;;15.40;99.90;;;;;;2622093;47;20776;31
2022/05/24 00:18:00;;;;;;;;;;;15.40;99.90;;;;;;2603938;54;19957;31
2022/05/24 00:20:33;;;;;;;;;;;15.40;99.90;;;;;;2603529;54;19949;31
2022/05/24 00:23:08;;;;;;;;;;;15.40;99.90;;;;;;2622365;46;19950;31
2022/05/24 00:25:42;;;;;;;;;;;15.40;99.90;;;;;;2702246;39;21298;31
2022/05/24 00:28:19;;;;;;;;;;;15.40;99.90;;;;;;2603767;54;20500;31
2022/05/24 00:30:54;;;;;;;;;;;15.40;99.90;;;;;;2603830;54;20025;31
2022/05/24 00:33:28;;;;;;;;;;;15.30;99.90;;;;;;2622064;46;19942;31
2022/05/24 00:36:01;;;;;;;;;;;15.30;99.90;;;;;;2603693;54;19935;31
2022/05/24 00:38:36;;;;;;;;;;;15.30;99.90;;;;;;2603702;54;20631;31
2022/05/24 00:41:24;;;;;;;;;;;15.30;99.90;;;;;;2603964;54;19942;31
2022/05/24 00:44:03;;;;;;;;;;;15.30;99.90;;;;;;2621849;46;20505;31
2022/05/24 00:46:38;;;;;;;;;;;15.30;99.90;;;;;;2603872;54;20768;31
2022/05/24 00:49:15;;;;;;;;;;;15.20;99.90;;;;;;2702422;39;20458;31
2022/05/24 00:51:49;;;;;;;;;;;15.20;99.90;;;;;;2622109;46;20753;31
2022/05/24 00:54:24;;;;;;;;;;;15.20;99.90;;;;;;2622285;46;20769;31
2022/05/24 00:56:58;;;;;;;;;;;15.20;99.90;;;;;;2603575;54;19958;31
2022/05/24 00:59:35;;;;;;;;;;;15.20;99.90;;;;;;2604034;54;19942;31
2022/05/24 01:02:09;;;;;;;;;;;15.20;99.90;;;;;;2603916;54;19941;31
2022/05/24 01:04:47;;;;;;;;;;;15.10;99.90;;;;;;2622269;46;19934;31
2022/05/24 01:07:23;;;;;;;;;;;15.10;99.90;;;;;;2603705;54;19970;31
2022/05/24 01:09:56;;;;;;;;;;;15.10;99.90;;;;;;2603710;54;22242;31
2022/05/24 01:12:32;;;;;;;;;;;15.00;99.90;;;;;;2622247;46;19935;31
2022/05/24 01:15:09;;;;;;;;;;;15.00;99.90;;;;;;2702195;39;20461;31
2022/05/24 01:17:43;;;;;;;;;;;15.00;99.90;;;;;;2603787;54;19942;31
2022/05/24 01:20:17;;;;;;;;;;;15.00;99.90;;;;;;2622128;46;20682;31
2022/05/24 01:22:57;;;;;;;;;;;15.00;99.90;;;;;;2622328;46;20749;31
2022/05/24 01:25:31;;;;;;;;;;;15.00;99.90;;;;;;2621994;46;19935;31
2022/05/24 01:28:10;;;;;;;;;;;15.00;99.90;;;;;;2603582;54;20670;31
2022/05/24 01:30:43;;;;;;;;;;;15.00;99.90;;;;;;2603861;54;19939;31
2022/05/24 01:36:15;;;;;;;;;;;15.00;99.90;;;;;;2603584;54;19938;31
2022/05/24 01:38:47;;;;;;;;;;;15.00;99.90;;;;;;2702327;39;22264;31
2022/05/24 01:41:22;;;;;;;;;;;15.00;99.90;;;;;;2603611;54;20733;31
2022/05/24 01:43:57;;;;;;;;;;;14.90;99.90;;;;;;2603600;54;20809;31
2022/05/24 01:46:31;;;;;;;;;;;14.90;99.90;;;;;;2621721;46;20688;31
2022/05/24 01:49:07;;;;;;;;;;;14.90;99.90;;;;;;2603724;54;20697;31
2022/05/24 01:51:41;;;;;;;;;;;14.90;99.90;;;;;;2603581;54;20788;31
2022/05/24 01:54:15;;;;;;;;;;;15.00;99.90;;;;;;2622002;46;19965;31
2022/05/24 01:56:50;;;;;;;;;;;14.90;99.90;;;;;;2622096;46;19941;31
2022/05/24 01:59:27;;;;;;;;;;;14.90;99.90;;;;;;2603356;54;20770;31
2022/05/24 02:01:59;;;;;;;;;;;14.90;99.90;;;;;;2702152;39;21050;31
2022/05/24 02:04:34;;;;;;;;;;;14.90;99.90;;;;;;2720484;39;20433;31
2022/05/24 02:07:08;;;;;;;;;;;14.90;99.90;;;;;;2603592;54;20485;31
2022/05/24 02:09:42;;;;;;;;;;;14.90;99.90;;;;;;2621882;46;19938;31
2022/05/24 02:12:16;;;;;;;;;;;14.90;99.90;;;;;;2603623;54;20738;31
2022/05/24 02:14:53;;;;;;;;;;;14.90;99.90;;;;;;2622004;46;19941;31
2022/05/24 02:17:27;;;;;;;;;;;14.90;99.90;;;;;;2603631;54;20709;31
2022/05/24 02:20:02;;;;;;;;;;;14.90;99.90;;;;;;2603348;54;20011;31
2022/05/24 02:22:35;;;;;;;;;;;14.90;99.90;;;;;;2622034;46;19942;31
2022/05/24 02:25:13;;;;;;;;;;;14.90;99.90;;;;;;2607753;46;19942;31
2022/05/24 02:27:47;;;;;;;;;;;14.90;99.90;;;;;;2622018;46;20664;31
2022/05/24 02:30:23;;;;;;;;;;;14.90;99.90;;;;;;2603443;54;19962;31
2022/05/24 02:32:58;;;;;;;;;;;14.90;99.90;;;;;;2622027;46;19946;31
2022/05/24 02:35:33;;;;;;;;;;;14.80;99.90;;;;;;2615486;46;20774;31
2022/05/24 02:38:07;;;;;;;;;;;14.80;99.90;;;;;;2621668;46;20017;31
2022/05/24 02:43:29;;;;;;;;;;;14.70;99.90;;;;;;2603273;54;19969;31
2022/05/24 02:46:06;;;;;;;;;;;14.70;99.90;;;;;;2603217;54;19946;31
2022/05/24 02:48:41;;;;;;;;;;;14.70;99.90;;;;;;2621778;46;20009;31
2022/05/24 02:51:15;;;;;;;;;;;14.70;99.90;;;;;;2603228;54;19942;31
2022/05/24 02:53:50;;;;;;;;;;;14.70;99.90;;;;;;2621208;46;20802;31
2022/05/24 02:56:25;;;;;;;;;;;14.60;99.90;;;;;;2603499;54;20655;31
2022/05/24 02:58:59;;;;;;;;;;;14.60;99.90;;;;;;2603221;54;19934;31
2022/05/24 03:01:35;;;;;;;;;;;14.60;99.90;;;;;;2603477;54;19935;31
2022/05/24 03:04:10;;;;;;;;;;;14.60;99.90;;;;;;2602940;54;20695;31
2022/05/24 03:09:37;;;;;;;;;;;14.50;99.90;;;;;;2603475;54;20685;31
2022/05/24 03:15:04;;;;;;;;;;;14.40;99.90;;;;;;2701797;39;20374;31
2022/05/24 03:17:44;;;;;;;;;;;14.40;99.90;;;;;;2603410;54;19946;31
2022/05/24 03:20:20;;;;;;;;;;;14.40;99.90;;;;;;2701817;39;20382;31
2022/05/24 03:22:54;;;;;;;;;;;14.40;99.90;;;;;;2603036;54;20749;31
2022/05/24 03:25:31;;;;;;;;;;;14.40;99.90;;;;;;2621639;46;20741;31
2022/05/24 03:28:06;;;;;;;;;;;14.40;99.90;;;;;;2621565;46;20848;31
2022/05/24 03:30:41;;;;;;;;;;;14.40;99.90;;;;;;2621733;46;20639;31
2022/05/24 03:33:18;;;;;;;;;;;14.40;99.90;;;;;;2603002;54;20646;31
2022/05/24 03:35:53;;;;;;;;;;;14.40;99.90;;;;;;2603106;54;20007;31
2022/05/24 03:38:27;;;;;;;;;;;14.40;99.90;;;;;;2621924;46;20635;31
2022/05/24 03:41:01;;;;;;;;;;;14.40;99.90;;;;;;2621845;46;20665;31
2022/05/24 03:43:38;;;;;;;;;;;14.40;99.90;;;;;;2621353;46;19976;31
2022/05/24 03:46:13;;;;;;;;;;;14.40;99.90;;;;;;2602250;54;19939;31
2022/05/24 03:48:51;;;;;;;;;;;14.30;99.90;;;;;;2603045;54;20494;31
2022/05/24 03:51:27;;;;;;;;;;;14.40;99.90;;;;;;2603247;54;19934;31
2022/05/24 03:54:06;;;;;;;;;;;14.40;99.90;;;;;;2621864;46;19938;31
2022/05/24 03:57:59;;;;;;;;;;;14.40;99.90;;;;;;2603452;54;19958;31
2022/05/24 03:59:36;;;;;;;;;;;14.50;99.90;;;;;;2602740;54;20769;31
2022/05/24 04:02:09;;;;;;;;;;;14.50;99.90;;;;;;2621504;46;20665;31
2022/05/24 04:04:46;;;;;;;;;;;14.50;99.90;;;;;;2621659;46;19941;31
2022/05/24 04:07:22;;;;;;;;;;;14.60;99.90;;;;;;2621567;46;19935;31
2022/05/24 04:09:57;;;;;;;;;;;14.60;99.90;;;;;;2603102;54;20777;31
2022/05/24 04:12:34;;;;;;;;;;;14.60;99.90;;;;;;2603020;54;20779;31
2022/05/24 04:15:09;;;;;;;;;;;14.60;99.90;;;;;;2621703;47;19934;31
2022/05/24 04:17:46;;;;;;;;;;;14.70;99.90;;;;;;2621181;47;19939;31
2022/05/24 04:20:24;;;;;;;;;;;14.70;99.90;;;;;;2621378;47;20749;31
2022/05/24 04:22:59;;;;;;;;;;;14.70;99.90;;;;;;2602971;54;20643;31
2022/05/24 04:25:36;;;;;;;;;;;14.70;99.90;;;;;;2621520;47;20772;31
2022/05/24 04:28:11;;;;;;;;;;;14.80;99.90;;;;;;2602563;54;20751;31
2022/05/24 04:30:46;;;;;;;;;;;14.80;99.90;;;;;;2602996;54;19942;31
2022/05/24 04:33:22;;;;;;;;;;;14.80;99.90;;;;;;2719916;39;20517;31
2022/05/24 04:36:04;;;;;;;;;;;14.80;99.90;;;;;;2603166;54;20804;31
2022/05/24 04:38:44;;;;;;;;;;;14.80;99.90;;;;;;2602706;54;19935;31
2022/05/24 04:44:05;;;;;;;;;;;14.80;99.90;;;;;;2603137;54;21311;31
2022/05/24 04:49:29;;;;;;;;;;;14.90;99.90;;;;;;2602815;54;19935;31
2022/05/24 04:52:11;;;;;;;;;;;14.90;99.90;;;;;;2602856;54;20749;31
2022/05/24 04:54:45;;;;;;;;;;;14.90;99.90;;;;;;2719856;39;20416;31
2022/05/24 04:57:21;;;;;;;;;;;15.00;99.90;;;;;;2602970;54;19946;31
2022/05/24 04:59:56;;;;;;;;;;;15.00;99.90;;;;;;2602839;54;19935;31
2022/05/24 05:02:30;;;;;;;;;;;15.00;99.90;;;;;;2603652;54;19935;31
2022/05/24 05:05:05;;;;;;;;;;;15.10;99.90;;;;;;2603745;54;19938;31
2022/05/24 05:07:42;;;;;;;;;;;15.10;99.90;;;;;;2603391;54;19942;31
2022/05/24 05:10:17;;;;;;;;;;;15.20;99.90;;;;;;2622270;46;20735;31
2022/05/24 05:12:51;;;;;;;;;;;15.20;99.90;;;;;;2603633;54;20750;31
2022/05/24 05:15:28;;;;;;;;;;;15.30;99.90;;;;;;2622288;46;19934;31
2022/05/24 05:18:06;;;;;;;;;;;15.30;99.90;;;;;;2622070;46;19947;31
2022/05/24 05:20:42;;;;;;;;;;;15.30;99.90;;;;;;2622372;46;19941;31
2022/05/24 05:23:19;;;;;;;;;;;15.40;99.90;;;;;;2603749;54;19934;31
2022/05/24 05:25:56;;;;;;;;;;;15.40;99.90;;;;;;2720836;39;20400;31
2022/05/24 05:28:31;;;;;;;;;;;15.50;99.90;;;;;;2622096;46;19961;31
2022/05/24 05:33:56;;;;;;;;;;;15.50;99.90;;;;;;2603478;54;20763;31
2022/05/24 05:36:33;;;;;;;;;;;15.60;99.90;;;;;;2621930;46;19942;31
2022/05/24 05:39:11;;;;;;;;;;;15.70;99.90;;;;;;2621903;46;19935;31
2022/05/24 05:41:47;;;;;;;;;;;15.80;99.90;;;;;;2603473;54;20505;31
2022/05/24 05:44:23;;;;;;;;;;;15.90;99.90;;;;;;2603644;54;20448;31
2022/05/24 05:46:59;;;;;;;;;;;16.10;99.90;;;;;;2603748;54;20724;31
2022/05/24 05:49:32;;;;;;;;;;;16.10;99.90;;;;;;2603452;54;19990;31
2022/05/24 05:52:07;;;;;;;;;;;16.40;99.90;;;;;;2621749;46;19941;31
2022/05/24 05:54:46;;;;;;;;;;;16.70;99.90;;;;;;2603548;54;19934;31
2022/05/24 05:57:22;;;;;;;;;;;16.90;99.90;;;;;;2603442;54;19939;31
2022/05/24 05:59:57;;;;;;;;;;;17.00;99.90;;;;;;2603402;54;19941;31
2022/05/24 06:02:35;;;;;;;;;;;17.00;99.90;;;;;;2603409;54;19951;31
2022/05/24 06:05:11;;;;;;;;;;;17.00;99.90;;;;;;2621898;46;20047;31
2022/05/24 06:07:45;;;;;;;;;;;17.10;99.90;;;;;;2621891;46;19934;31
2022/05/24 06:10:23;;;;;;;;;;;17.10;99.90;;;;;;2603388;54;20766;31
2022/05/24 06:13:03;;;;;;;;;;;17.40;99.90;;;;;;2621680;46;20576;31
2022/05/24 06:15:37;;;;;;;;;;;17.50;99.90;;;;;;2602495;54;20478;31
2022/05/24 06:18:13;;;;;;;;;;;17.50;99.90;;;;;;2602919;54;19957;31
2022/05/24 06:20:48;;;;;;;;;;;17.90;99.90;;;;;;2622082;46;20031;31
2022/05/24 06:23:24;;;;;;;;;;;18.30;99.90;;;;;;2603365;54;19941;31
2022/05/24 06:26:02;;;;;;;;;;;18.70;99.90;;;;;;2621948;46;20635;31
2022/05/24 06:28:40;;;;;;;;;;;19.10;99.90;;;;;;2602693;54;19941;31
2022/05/24 06:31:15;;;;;;;;;;;19.60;99.90;;;;;;2603451;54;20792;31
2022/05/24 06:33:50;;;;;;;;;;;19.70;99.90;;;;;;2622042;46;20806;31
2022/05/24 06:36:25;;;;;;;;;;;19.70;99.90;;;;;;2603259;54;19947;31
2022/05/24 06:39:01;;;;;;;;;;;19.90;99.90;;;;;;2603377;54;20031;31
2022/05/24 06:41:38;;;;;;;;;;;20.30;99.90;;;;;;2603252;54;19935;31
2022/05/24 06:44:16;;;;;;;;;;;20.40;99.90;;;;;;2602672;54;21157;31
2022/05/24 06:46:50;;;;;;;;;;;20.60;99.90;;;;;;2615087;46;20780;31
2022/05/24 06:49:25;;;;;;;;;;;20.70;99.90;;;;;;2621828;46;19935;31
2022/05/24 06:52:00;;;;;;;;;;;20.60;99.90;;;;;;2621630;46;20807;31
2022/05/24 06:54:35;;;;;;;;;;;20.90;99.90;;;;;;2603012;54;20786;31
2022/05/24 06:57:08;;;;;;;;;;;20.80;99.90;;;;;;2621756;46;19934;31
2022/05/24 07:02:34;;;;;;;;;;;20.80;99.90;;;;;;2603027;54;20807;31
2022/05/24 07:05:10;;;;;;;;;;;20.70;99.90;;;;;;2603193;54;19941;31
2022/05/24 07:07:44;;;;;;;;;;;20.60;99.90;;;;;;2603473;54;19938;31
2022/05/24 07:10:20;;;;;;;;;;;20.60;99.90;;;;;;2621288;46;19934;31
2022/05/24 07:13:02;;;;;;;;;;;20.70;99.90;;;;;;2621844;46;19934;31
2022/05/24 07:15:39;;;;;;;;;;;21.10;99.90;;;;;;2603269;54;19938;31
2022/05/24 07:18:13;;;;;;;;;;;21.60;99.90;;;;;;2603178;54;19962;31
2022/05/24 07:20:48;;;;;;;;;;;22.00;99.90;;;;;;2602862;54;19982;31
2022/05/24 07:23:24;;;;;;;;;;;22.30;99.90;;;;;;2621614;46;19977;31
2022/05/24 07:26:00;;;;;;;;;;;22.70;99.90;;;;;;2603104;54;19942;31
2022/05/24 07:28:35;;;;;;;;;;;23.10;99.90;;;;;;2602483;54;19943;31
2022/05/24 07:31:13;;;;;;;;;;;23.30;99.90;;;;;;2602276;54;20795;31
2022/05/24 07:33:50;;;;;;;;;;;23.60;99.90;;;;;;2621148;46;20692;31
2022/05/24 07:36:26;;;;;;;;;;;23.80;99.90;;;;;;2602859;54;20041;31
2022/05/24 07:47:30;;;;;;;;;;;23.80;99.90;;;;;;2621201;46;19941;31
2022/05/24 07:50:07;;;;;;;;;;;23.50;99.90;;;;;;2621627;46;20813;31
2022/05/24 07:52:42;;;;;;;;;;;23.70;99.90;;;;;;2621349;46;20816;31
2022/05/24 07:55:27;;;;;;;;;;;24.10;99.90;;;;;;2602771;54;20704;31
2022/05/24 07:58:01;;;;;;;;;;;24.20;99.90;;;;;;2621530;46;19935;31
2022/05/24 08:00:38;;;;;;;;;;;24.30;99.90;;;;;;2602899;54;20030;31
2022/05/24 08:03:15;;;;;;;;;;;24.40;99.90;;;;;;2602608;54;20870;31
2022/05/24 08:05:54;;;;;;;;;;;24.40;99.90;;;;;;2602819;54;19977;31
2022/05/24 08:08:29;;;;;;;;;;;24.30;99.90;;;;;;2621383;46;19935;31
2022/05/24 08:11:06;;;;;;;;;;;24.60;99.90;;;;;;2621434;46;20833;31
2022/05/24 08:13:44;;;;;;;;;;;25.10;99.90;;;;;;2602979;54;19993;31
2022/05/24 08:16:18;;;;;;;;;;;25.40;99.90;;;;;;2603092;54;19935;31
2022/05/24 08:18:52;;;;;;;;;;;25.70;99.90;;;;;;2602484;54;19984;31
2022/05/24 08:21:28;;;;;;;;;;;25.90;99.90;;;;;;2602896;54;19984;31
2022/05/24 08:24:03;;;;;;;;;;;25.90;99.90;;;;;;2603043;54;19941;31
2022/05/24 08:26:42;;;;;;;;;;;26.10;99.90;;;;;;2621346;47;20008;31
2022/05/24 08:29:21;;;;;;;;;;;26.10;99.90;;;;;;2621209;47;21258;31
2022/05/24 08:31:58;;;;;;;;;;;26.20;99.90;;;;;;2621541;47;19957;31
2022/05/24 08:34:33;;;;;;;;;;;26.40;99.90;;;;;;2602895;54;20827;31
2022/05/24 08:37:11;;;;;;;;;;;26.40;99.90;;;;;;2603481;54;19934;31
2022/05/24 08:39:49;;;;;;;;;;;26.30;99.90;;;;;;2603424;54;20011;31
2022/05/24 08:42:25;;;;;;;;;;;26.20;99.90;;;;;;2603373;54;20794;31
2022/05/24 08:50:40;;;;;;;;;;;26.10;99.90;;;;;;2621691;46;20711;31
2022/05/24 08:53:18;;;;;;;;;;;26.00;99.90;;;;;;2603629;54;19934;31
2022/05/24 08:55:57;;;;;;;;;;;25.90;99.90;;;;;;2602784;54;19935;31
2022/05/24 08:58:34;;;;;;;;;;;25.70;99.90;;;;;;2603341;54;20797;31
2022/05/24 09:01:10;;;;;;;;;;;25.60;99.90;;;;;;2603752;54;20819;31
2022/05/24 09:03:45;;;;;;;;;;;25.50;99.90;;;;;;2603103;54;19941;31
2022/05/24 09:06:24;;;;;;;;;;;25.50;99.90;;;;;;2621551;46;20513;31
2022/05/24 09:09:02;;;;;;;;;;;25.40;99.90;;;;;;2602585;54;20393;31
2022/05/24 09:11:43;;;;;;;;;;;25.80;99.90;;;;;;2603247;54;20816;31
2022/05/24 09:14:19;;;;;;;;;;;26.30;99.90;;;;;;2603537;54;20656;31
2022/05/24 09:16:56;;;;;;;;;;;26.40;99.90;;;;;;2603437;54;20365;31
2022/05/24 09:19:32;;;;;;;;;;;26.60;99.90;;;;;;2603661;54;20869;31
2022/05/24 09:22:08;;;;;;;;;;;26.80;99.90;;;;;;2603588;54;20662;31
2022/05/24 09:24:44;;;;;;;;;;;26.90;99.90;;;;;;2701782;39;20477;31
2022/05/24 09:27:24;;;;;;;;;;;26.90;99.90;;;;;;2701600;39;20424;31
2022/05/24 09:30:02;;;;;;;;;;;26.90;99.90;;;;;;2603446;54;20794;31
2022/05/24 09:32:39;;;;;;;;;;;26.90;99.90;;;;;;2621792;46;19934;31
2022/05/24 09:35:17;;;;;;;;;;;26.80;99.90;;;;;;2603366;54;20504;31
2022/05/24 09:38:08;;;;;;;;;;;26.80;99.90;;;;;;2621541;46;19935;31
2022/05/24 09:40:45;;;;;;;;;;;26.60;99.90;;;;;;2602990;54;20849;31
2022/05/24 09:43:26;;;;;;;;;;;26.60;99.90;;;;;;2603033;54;19935;31
2022/05/24 09:46:02;;;;;;;;;;;26.40;99.90;;;;;;2621908;46;20643;31
2022/05/24 09:48:38;;;;;;;;;;;26.20;99.90;;;;;;2621950;46;20698;31
2022/05/24 09:51:14;;;;;;;;;;;26.00;99.90;;;;;;2613603;46;20635;31
2022/05/24 09:53:50;;;;;;;;;;;25.90;99.90;;;;;;2603446;54;19942;31
2022/05/24 09:56:26;;;;;;;;;;;25.70;99.90;;;;;;2603014;54;20516;31
2022/05/24 09:59:04;;;;;;;;;;;25.60;99.90;;;;;;2621973;46;20777;31
2022/05/24 10:01:40;;;;;;;;;;;25.50;99.90;;;;;;2612086;46;19980;31
2022/05/24 10:04:16;;;;;;;;;;;25.50;99.90;;;;;;2602979;54;19941;31
2022/05/24 10:06:56;;;;;;;;;;;25.50;99.90;;;;;;2603147;54;20712;31
2022/05/24 10:09:35;;;;;;;;;;;25.60;99.90;;;;;;2602368;54;19989;31
2022/05/24 10:12:13;;;;;;;;;;;25.80;99.90;;;;;;2603335;54;20778;31
2022/05/24 10:14:52;;;;;;;;;;;25.90;99.90;;;;;;2603282;54;19935;31
2022/05/24 10:17:27;;;;;;;;;;;26.00;99.90;;;;;;2609986;46;19964;31
2022/05/24 10:20:05;;;;;;;;;;;26.00;99.90;;;;;;2602306;54;20513;31
2022/05/24 10:22:41;;;;;;;;;;;26.10;99.90;;;;;;2602923;54;19946;31
2022/05/24 10:25:18;;;;;;;;;;;26.10;99.90;;;;;;2621314;46;19935;31
2022/05/24 10:28:00;;;;;;;;;;;26.30;99.90;;;;;;2603404;54;20777;31
2022/05/24 10:30:41;;;;;;;;;;;26.30;99.90;;;;;;2618989;46;20777;31
2022/05/24 10:39:06;;;;;;;;;;;26.30;99.90;;;;;;2603044;54;20728;31
2022/05/24 10:41:45;;;;;;;;;;;26.60;99.90;;;;;;2602966;54;19934;31
2022/05/24 10:44:20;;;;;;;;;;;26.60;99.90;;;;;;2603161;54;20725;31
2022/05/24 10:47:01;;;;;;;;;;;26.60;99.90;;;;;;2603150;54;19950;31
2022/05/24 10:49:39;;;;;;;;;;;26.60;99.90;;;;;;2602921;54;20568;31
2022/05/24 10:52:16;;;;;;;;;;;26.50;99.90;;;;;;2603162;54;19935;31
2022/05/24 10:54:54;;;;;;;;;;;26.40;99.90;;;;;;2621174;46;19943;31
2022/05/24 10:57:28;;;;;;;;;;;26.30;99.90;;;;;;2602892;54;19942;31
2022/05/24 11:00:04;;;;;;;;;;;26.20;99.90;;;;;;2603244;54;20769;31
2022/05/24 11:02:42;;;;;;;;;;;26.10;99.90;;;;;;2603154;54;20862;31
2022/05/24 11:05:22;;;;;;;;;;;26.10;99.90;;;;;;2621763;46;19935;31
2022/05/24 11:07:59;;;;;;;;;;;26.20;99.90;;;;;;2621520;46;19935;31
2022/05/24 11:10:36;;;;;;;;;;;26.30;99.90;;;;;;2621721;46;20655;31
2022/05/24 11:13:12;;;;;;;;;;;26.40;99.90;;;;;;2621743;46;19941;31
2022/05/24 11:15:50;;;;;;;;;;;26.40;99.90;;;;;;2719985;39;20500;31
2022/05/24 11:18:27;;;;;;;;;;;26.40;99.90;;;;;;2603042;54;19934;31
2022/05/24 11:21:09;;;;;;;;;;;26.50;99.90;;;;;;2602906;54;20802;31
2022/05/24 11:23:47;;;;;;;;;;;26.70;99.90;;;;;;2603165;54;20784;31
2022/05/24 11:26:24;;;;;;;;;;;27.00;99.90;;;;;;2614900;46;19942;31
2022/05/24 11:28:59;;;;;;;;;;;27.10;99.90;;;;;;2602809;54;20022;31
2022/05/24 11:31:37;;;;;;;;;;;27.30;99.90;;;;;;2602872;54;20729;31
2022/05/24 11:34:13;;;;;;;;;;;27.50;99.90;;;;;;2612669;46;19941;31
2022/05/24 11:36:51;;;;;;;;;;;27.70;99.90;;;;;;2602726;54;20671;31
2022/05/24 11:39:27;;;;;;;;;;;27.80;99.90;;;;;;2621719;46;19934;31
2022/05/24 11:42:17;;;;;;;;;;;27.90;99.90;;;;;;2621567;46;20690;31
2022/05/24 11:44:51;;;;;;;;;;;28.10;99.90;;;;;;2621370;46;20481;31
2022/05/24 11:47:40;;;;;;;;;;;28.20;99.90;;;;;;2719836;39;20410;31
2022/05/24 11:50:36;;;;;;;;;;;28.10;99.90;;;;;;2621257;46;20754;31
2022/05/24 11:53:09;;;;;;;;;;;28.00;99.90;;;;;;2602548;54;20513;31
2022/05/24 11:55:51;;;;;;;;;;;28.10;99.90;;;;;;2614008;46;20551;31
2022/05/24 11:58:50;;;;;;;;;;;28.10;99.90;;;;;;2603012;54;20571;31
2022/05/24 12:09:49;;;;;;;;;;;28.00;99.70;;;;;;2621149;46;20474;31
2022/05/24 12:12:34;;;;;;;;;;;27.80;99.90;;;;;;2602692;54;20760;31
2022/05/24 12:15:11;;;;;;;;;;;27.80;99.90;;;;;;2701515;39;20528;31
2022/05/24 12:17:45;;;;;;;;;;;27.60;99.90;;;;;;2603115;54;19941;31
2022/05/24 12:20:30;;;;;;;;;;;27.40;99.90;;;;;;2602960;54;19935;31
2022/05/24 12:23:07;;;;;;;;;;;27.30;99.70;;;;;;2791016;31;20513;31
2022/05/24 12:25:52;;;;;;;;;;;27.30;99.60;;;;;;2602868;54;19934;31
2022/05/24 12:28:31;;;;;;;;;;;27.30;99.90;;;;;;2621100;47;19962;31
2022/05/24 12:31:05;;;;;;;;;;;27.30;99.90;;;;;;2602568;54;19990;31
2022/05/24 12:33:41;;;;;;;;;;;27.30;99.90;;;;;;2621221;47;20679;31
2022/05/24 12:36:26;;;;;;;;;;;27.30;99.90;;;;;;2621354;47;20688;31
2022/05/24 12:39:25;;;;;;;;;;;27.40;99.90;;;;;;2602799;54;20785;31
2022/05/24 12:42:00;;;;;;;;;;;27.50;99.90;;;;;;2621299;47;20842;31
2022/05/24 12:44:45;;;;;;;;;;;27.70;99.30;;;;;;2602534;54;21461;31
2022/05/24 12:47:22;;;;;;;;;;;27.80;99.50;;;;;;2602597;54;20675;31
2022/05/24 12:49:58;;;;;;;;;;;27.80;99.00;;;;;;2772662;31;20465;31
2022/05/24 12:52:34;;;;;;;;;;;27.80;98.50;;;;;;2602286;54;20721;31
2022/05/24 12:55:10;;;;;;;;;;;27.80;98.30;;;;;;2620964;47;20005;31
2022/05/24 12:57:47;;;;;;;;;;;27.90;98.90;;;;;;2617688;47;20651;31
2022/05/24 13:00:26;;;;;;;;;;;28.10;99.00;;;;;;2602549;54;19941;31
2022/05/24 13:03:01;;;;;;;;;;;28.20;98.60;;;;;;2609120;47;20711;31
2022/05/24 13:05:50;;;;;;;;;;;28.20;98.30;;;;;;2602375;54;19934;31
2022/05/24 13:08:25;;;;;;;;;;;28.10;97.90;;;;;;2700339;39;20370;31
2022/05/24 13:11:00;;;;;;;;;;;28.00;97.60;;;;;;2602637;54;20493;31
2022/05/24 13:13:36;;;;;;;;;;;27.90;97.40;;;;;;2602393;54;19941;31
2022/05/24 13:16:17;;;;;;;;;;;27.80;97.70;;;;;;2621129;47;19993;31
2022/05/24 13:18:52;;;;;;;;;;;27.70;97.90;;;;;;2601766;54;20770;31
2022/05/24 13:21:26;;;;;;;;;;;27.60;98.70;;;;;;2602349;54;20895;31
2022/05/24 13:24:33;;;;;;;;;;;27.50;98.50;;;;;;2603117;54;19942;31
2022/05/24 13:35:23;;;;;;;;;;;27.40;99.00;;;;;;2622049;46;19957;31
2022/05/24 13:37:59;;;;;;;;;;;27.20;98.90;;;;;;2622155;46;20766;31
2022/05/24 13:40:40;;;;;;;;;;;27.10;99.20;;;;;;2621850;46;20010;31
2022/05/24 13:43:17;;;;;;;;;;;27.10;99.10;;;;;;2603335;54;19934;31
2022/05/24 13:45:52;;;;;;;;;;;27.00;99.40;;;;;;2603341;54;19935;31
2022/05/24 13:48:28;;;;;;;;;;;26.90;99.50;;;;;;2602567;54;21871;31
2022/05/24 13:51:07;;;;;;;;;;;26.90;99.70;;;;;;2621840;46;19934;31
2022/05/24 13:53:47;;;;;;;;;;;27.00;99.80;;;;;;2602572;54;20016;31
2022/05/24 13:56:24;;;;;;;;;;;26.90;99.40;;;;;;2602639;54;20013;31
2022/05/24 13:59:06;;;;;;;;;;;26.90;99.70;;;;;;2621970;46;19934;31
2022/05/24 14:01:42;;;;;;;;;;;26.80;99.60;;;;;;2621359;46;19989;31
2022/05/24 14:04:20;;;;;;;;;;;26.90;99.90;;;;;;2602585;54;19942;31
2022/05/24 14:06:56;;;;;;;;;;;27.00;99.90;;;;;;2603113;54;19938;31
2022/05/24 14:09:33;;;;;;;;;;;27.00;99.90;;;;;;2603201;54;20790;31
2022/05/24 14:12:10;;;;;;;;;;;27.00;99.90;;;;;;2603506;54;20739;31
2022/05/24 14:14:46;;;;;;;;;;;27.00;99.90;;;;;;2602778;54;20274;31
2022/05/24 14:17:21;;;;;;;;;;;27.00;99.90;;;;;;2603301;54;20647;31
2022/05/24 14:20:01;;;;;;;;;;;27.00;99.90;;;;;;2602518;54;19968;31
2022/05/24 14:22:37;;;;;;;;;;;26.90;99.90;;;;;;2603360;54;20748;31
2022/05/24 14:25:13;;;;;;;;;;;26.90;99.90;;;;;;2621559;46;20791;31
2022/05/24 14:27:48;;;;;;;;;;;26.90;99.90;;;;;;2603263;54;19935;31
2022/05/24 14:30:23;;;;;;;;;;;26.80;99.90;;;;;;2617430;46;20773;31
2022/05/24 14:33:00;;;;;;;;;;;26.70;99.90;;;;;;2620910;46;20831;31
2022/05/24 14:35:37;;;;;;;;;;;26.70;99.90;;;;;;2602285;54;20811;31
2022/05/24 14:38:11;;;;;;;;;;;26.60;99.90;;;;;;2621493;46;19981;31
2022/05/24 14:40:48;;;;;;;;;;;26.50;99.90;;;;;;2619358;46;19972;31
2022/05/24 14:43:24;;;;;;;;;;;26.50;99.90;;;;;;2603192;54;19982;31
2022/05/24 14:46:00;;;;;;;;;;;26.40;99.90;;;;;;2621722;46;19939;31
2022/05/24 14:48:35;;;;;;;;;;;26.30;99.90;;;;;;2603425;54;19934;31
2022/05/24 14:51:15;;;;;;;;;;;26.30;99.90;;;;;;2603027;54;19934;31
2022/05/24 14:53:54;;;;;;;;;;;26.20;99.90;;;;;;2614289;46;20808;31
2022/05/24 14:56:40;;;;;;;;;;;26.20;99.90;;;;;;2621287;46;20691;31
2022/05/24 14:59:16;;;;;;;;;;;26.10;99.90;;;;;;2603075;54;20687;31
2022/05/24 15:01:50;;;;;;;;;;;25.90;99.90;;;;;;2617610;46;20659;31
2022/05/24 15:04:30;;;;;;;;;;;25.80;99.90;;;;;;2602581;54;21097;31
2022/05/24 15:15:38;;;;;;;;;;;24.60;99.90;;;;;;2621809;46;19935;31
2022/05/24 15:18:13;;;;;;;;;;;24.10;99.90;;;;;;2603183;54;19942;31
2022/05/24 15:20:49;;;;;;;;;;;23.70;99.90;;;;;;2602406;54;20497;31
2022/05/24 15:23:26;;;;;;;;;;;23.20;99.90;;;;;;2602455;54;19958;31
2022/05/24 15:26:13;;;;;;;;;;;23.00;99.90;;;;;;2602378;54;19954;31
2022/05/24 15:28:54;;;;;;;;;;;22.70;99.90;;;;;;2603092;54;19981;31
2022/05/24 15:31:29;;;;;;;;;;;22.50;99.90;;;;;;2621591;46;19954;31
2022/05/24 15:34:07;;;;;;;;;;;22.30;99.90;;;;;;2621461;46;20698;31
2022/05/24 15:36:42;;;;;;;;;;;22.00;99.90;;;;;;2603143;54;20643;31
2022/05/24 15:39:16;;;;;;;;;;;21.80;99.90;;;;;;2603082;54;19934;31
2022/05/24 15:41:56;;;;;;;;;;;21.50;99.90;;;;;;2602890;54;20787;31
2022/05/24 15:44:31;;;;;;;;;;;21.30;99.90;;;;;;2602103;54;20655;31
2022/05/24 15:49:43;;;;;;;;;;;21.00;99.90;;;;;;2602777;54;19989;31
2022/05/24 15:52:19;;;;;;;;;;;21.00;99.90;;;;;;2602664;54;19941;31
2022/05/24 15:54:53;;;;;;;;;;;20.90;99.90;;;;;;2602898;54;20804;31
2022/05/24 15:57:32;;;;;;;;;;;20.90;99.90;;;;;;2602909;54;20701;31
2022/05/24 16:00:10;;;;;;;;;;;20.80;99.90;;;;;;2613537;46;20001;31
2022/05/24 16:11:03;;;;;;;;;;;20.70;99.90;;;;;;2621277;46;19998;31
2022/05/24 16:13:41;;;;;;;;;;;20.70;99.90;;;;;;2616901;46;19942;31
2022/05/24 16:16:19;;;;;;;;;;;20.60;99.90;;;;;;2621161;46;20800;31
2022/05/24 16:21:54;;;;;;;;;;;20.60;99.90;;;;;;2602431;54;20659;31
2022/05/24 16:24:29;;;;;;;;;;;20.70;99.90;;;;;;2602629;54;19934;31
2022/05/24 16:27:07;;;;;;;;;;;20.90;99.90;;;;;;2602691;54;19934;31
2022/05/24 16:29:45;;;;;;;;;;;21.00;99.90;;;;;;2602566;54;19947;31
2022/05/24 16:35:14;;;;;;;;;;;21.00;99.90;;;;;;2601805;54;19993;31
2022/05/24 16:37:55;;;;;;;;;;;21.10;99.90;;;;;;2601929;54;19989;31
2022/05/24 16:40:30;;;;;;;;;;;21.10;99.90;;;;;;2601781;54;20001;31
2022/05/24 16:43:05;;;;;;;;;;;21.00;99.90;;;;;;2602838;54;20663;31
2022/05/24 16:45:43;;;;;;;;;;;20.90;99.90;;;;;;2602599;54;20727;31
2022/05/24 16:48:20;;;;;;;;;;;20.90;99.90;;;;;;2607304;47;19934;31
2022/05/24 16:50:59;;;;;;;;;;;20.90;99.90;;;;;;2621482;47;19939;31
2022/05/24 16:59:43;;;;;;;;;;;21.00;99.90;;;;;;2603335;54;20850;31